Time;durP1;ratioP1;P1;durP2;ratioP2;P2;SDS_P1;SDS_P2;PMS_P1;PMS_P2;Temp;Humidity;BMP_temperature;BMP_pressure;BME280_temperature;BME280_humidity;BME280_pressure;Samples;Min_cycle;Max_cycle;Signal;HPM_P1;HPM_P2
2023/05/17 00:02:26;;;;;;;7.68;2.40;;;;;;;8.52;78.54;101292.88;5052329;28;20013;-77
2023/05/17 00:05:29;;;;;;;;;;;;;;;8.52;78.62;101295.50;5052972;28;20051;-77
2023/05/17 00:08:32;;;;;;;6.10;1.67;;;;;;;8.45;78.83;101291.34;5052686;28;20276;-77
2023/05/17 00:11:36;;;;;;;5.85;2.33;;;;;;;8.44;78.87;101300.09;5052682;28;20228;-77
2023/05/17 00:14:39;;;;;;;12.07;2.75;;;;;;;8.37;78.94;101304.59;5052487;28;20048;-76
2023/05/17 00:17:42;;;;;;;;;;;;;;;8.30;79.39;101308.31;5052755;28;20047;-76
2023/05/17 00:20:45;;;;;;;7.25;2.35;;;;;;;8.19;79.42;101304.31;5052675;28;20319;-77
2023/05/17 00:23:48;;;;;;;11.32;2.50;;;;;;;8.18;79.19;101302.59;5052245;28;20554;-76
2023/05/17 00:26:52;;;;;;;7.20;2.10;;;;;;;8.13;79.64;101300.13;5056268;28;20102;-76
2023/05/17 00:29:55;;;;;;;7.88;2.30;;;;;;;8.12;79.83;101303.63;5043751;28;20631;-76
2023/05/17 00:32:59;;;;;;;6.32;2.25;;;;;;;8.18;79.71;101307.81;5043576;28;20095;-76
2023/05/17 00:36:03;;;;;;;7.78;1.90;;;;;;;8.13;79.53;101308.78;5043736;28;20180;-76
2023/05/17 00:39:06;;;;;;;10.10;2.60;;;;;;;8.10;79.34;101311.50;5043531;28;20098;-76
2023/05/17 00:42:10;;;;;;;;;;;;;;;8.04;79.65;101311.69;5052752;28;20465;-76
2023/05/17 00:45:13;;;;;;;9.30;2.70;;;;;;;7.97;79.91;101315.34;5055939;28;20023;-76
2023/05/17 00:48:17;;;;;;;4.60;1.88;;;;;;;7.92;79.84;101325.06;5043472;28;20048;-76
2023/05/17 00:51:21;;;;;;;8.30;2.20;;;;;;;7.82;80.48;101314.06;5043363;28;20111;-76
2023/05/17 00:54:25;;;;;;;5.03;2.00;;;;;;;7.85;80.35;101315.72;5043208;28;20044;-76
2023/05/17 00:57:28;;;;;;;10.57;2.40;;;;;;;7.81;80.48;101321.88;5043371;28;20520;-76
2023/05/17 01:00:32;;;;;;;8.65;2.63;;;;;;;7.67;80.34;101323.13;5055326;28;20565;-77
2023/05/17 01:03:35;;;;;;;6.60;1.80;;;;;;;7.64;81.18;101328.41;5055536;28;20520;-76
2023/05/17 01:06:38;;;;;;;;;;;;;;;7.64;80.83;101332.78;5055861;28;20069;-75
2023/05/17 01:09:44;;;;;;;5.97;2.05;;;;;;;7.58;80.66;101338.13;5055675;28;19935;-77
2023/05/17 01:13:06;;;;;;;5.78;1.80;;;;;;;7.73;80.12;101335.13;5043003;28;20048;-76
2023/05/17 01:16:17;;;;;;;6.05;2.00;;;;;;;7.66;80.21;101337.06;5055261;28;20048;-76
2023/05/17 01:19:50;;;;;;;8.32;1.73;;;;;;;7.51;80.46;101342.66;5043050;28;20047;-76
2023/05/17 01:23:33;;;;;;;7.45;1.92;;;;;;;7.39;81.17;101342.97;5031681;28;20052;-76
2023/05/17 01:26:44;;;;;;;8.50;2.22;;;;;;;7.39;80.76;101363.78;5042720;28;20044;-76
2023/05/17 01:29:49;;;;;;;4.45;1.52;;;;;;;7.38;81.26;101351.69;5042678;28;20047;-76
2023/05/17 01:32:57;;;;;;;9.07;2.20;;;;;;;7.33;81.51;101349.19;5054881;28;20044;-77
2023/05/17 01:36:01;;;;;;;9.90;2.30;;;;;;;7.32;81.15;101354.44;5054725;28;20052;-76
2023/05/17 01:39:04;;;;;;;;;;;;;;;7.34;80.79;101353.50;5050968;28;20106;-76
2023/05/17 01:42:31;;;;;;;11.73;2.97;;;;;;;7.17;81.60;101361.72;5042576;28;19966;-78
2023/05/17 01:45:48;;;;;;;7.15;1.92;;;;;;;7.19;81.01;101365.16;5054836;28;20118;-76
2023/05/17 01:49:22;;;;;;;6.25;2.35;;;;;;;7.12;81.08;101376.59;5054708;28;20083;-76
2023/05/17 01:52:44;;;;;;;6.18;1.67;;;;;;;7.05;81.20;101374.16;5053466;28;20729;-76
2023/05/17 01:55:53;;;;;;;6.90;2.35;;;;;;;7.04;81.30;101373.31;5054782;28;20507;-76
2023/05/17 01:59:02;;;;;;;10.55;1.95;;;;;;;7.05;81.54;101368.97;5036983;28;20103;-76
2023/05/17 02:02:07;;;;;;;6.75;1.85;;;;;;;7.03;81.34;101378.56;5054103;28;20056;-76
2023/05/17 02:05:12;;;;;;;9.55;2.70;;;;;;;7.00;81.17;101374.28;5054312;28;20119;-77
2023/05/17 02:08:16;;;;;;;8.57;2.10;;;;;;;7.00;81.66;101376.88;5054343;28;20459;-76
2023/05/17 02:11:19;;;;;;;4.53;1.88;;;;;;;6.98;81.27;101378.66;5041759;28;20048;-76
2023/05/17 02:14:22;;;;;;;4.45;1.80;;;;;;;6.92;81.28;101384.00;5054204;28;20153;-76
2023/05/17 02:17:26;;;;;;;;;;;;;;;6.92;81.52;101389.19;5054661;28;20051;-76
2023/05/17 02:20:29;;;;;;;10.27;1.90;;;;;;;6.90;81.59;101391.84;5030510;28;20014;-77
2023/05/17 02:23:32;;;;;;;6.05;2.17;;;;;;;6.98;81.21;101382.13;5041767;28;20447;-76
2023/05/17 02:26:36;;;;;;;;;;;;;;;6.81;80.90;101391.22;5054289;28;20575;-76
2023/05/17 02:29:39;;;;;;;4.70;1.70;;;;;;;6.96;80.69;101394.31;5053871;28;19920;-76
2023/05/17 02:32:42;;;;;;;5.40;1.92;;;;;;;6.82;81.21;101395.50;5041602;28;20140;-76
2023/05/17 02:35:48;;;;;;;6.25;1.92;;;;;;;6.69;81.77;101400.97;5041455;28;20052;-76
2023/05/17 02:38:51;;;;;;;5.18;2.17;;;;;;;6.65;81.83;101404.53;5053678;28;20056;-76
2023/05/17 02:41:54;;;;;;;6.90;2.03;;;;;;;6.71;81.27;101404.41;5053623;28;20048;-76
2023/05/17 02:44:57;;;;;;;8.57;2.20;;;;;;;6.72;81.08;101408.72;5053551;28;20052;-76
2023/05/17 02:48:01;;;;;;;;;;;;;;;6.78;80.65;101402.53;5053622;28;20052;-76
2023/05/17 02:51:04;;;;;;;9.70;1.90;;;;;;;6.83;80.54;101397.22;5041193;28;19996;-76
2023/05/17 02:54:08;;;;;;;8.10;2.10;;;;;;;6.92;79.58;101405.69;5040916;28;20052;-76
2023/05/17 02:57:11;;;;;;;6.25;2.40;;;;;;;6.81;79.98;101406.81;5053267;28;20444;-76
2023/05/17 03:00:15;;;;;;;;;;;;;;;6.72;80.75;101407.88;5053659;28;20043;-76
2023/05/17 03:03:19;;;;;;;5.78;1.80;;;;;;;6.59;81.06;101406.44;5040957;28;19940;-75
2023/05/17 03:06:22;;;;;;;;;;;;;;;6.62;81.26;101409.81;5041261;28;20086;-76
2023/05/17 03:09:29;;;;;;;6.35;2.20;;;;;;;6.65;81.44;101398.50;5040850;28;19920;-76
2023/05/17 03:12:32;;;;;;;4.82;2.33;;;;;;;6.78;81.06;101409.47;5040612;28;20059;-76
2023/05/17 03:15:36;;;;;;;7.07;2.08;;;;;;;6.71;81.41;101401.81;5053390;28;20051;-76
2023/05/17 03:18:40;;;;;;;4.90;2.20;;;;;;;6.69;81.92;101413.13;5040585;28;20412;-76
2023/05/17 03:21:43;;;;;;;5.07;2.10;;;;;;;6.56;82.29;101409.94;5040648;28;20075;-77
2023/05/17 03:24:47;;;;;;;6.10;2.90;;;;;;;6.66;82.25;101414.03;5040524;28;20116;-78
2023/05/17 03:27:51;;;;;;;6.40;2.60;;;;;;;6.73;82.58;101417.34;5052951;28;20043;-78
2023/05/17 03:30:54;;;;;;;7.60;2.20;;;;;;;6.88;82.30;101423.97;5052801;28;20072;-77
2023/05/17 03:33:57;;;;;;;7.93;2.65;;;;;;;6.77;82.91;101416.44;5040455;28;20051;-74
2023/05/17 03:37:01;;;;;;;7.22;2.63;;;;;;;6.73;83.08;101425.16;5040559;28;20576;-74
2023/05/17 03:40:04;;;;;;;6.82;2.38;;;;;;;6.61;84.34;101417.66;5040422;28;20164;-74
2023/05/17 03:43:08;;;;;;;7.65;2.95;;;;;;;6.46;85.09;101422.28;5040387;28;20039;-75
2023/05/17 03:46:13;;;;;;;9.57;3.47;;;;;;;6.46;85.44;101427.47;5037045;28;20459;-74
2023/05/17 03:49:17;;;;;;;7.43;2.78;;;;;;;6.46;85.09;101427.47;5040410;28;20083;-74
2023/05/17 03:52:20;;;;;;;4.43;2.33;;;;;;;6.49;85.35;101426.56;5052635;28;20044;-73
2023/05/17 03:55:24;;;;;;;6.53;2.60;;;;;;;6.46;85.23;101429.22;5000743;28;20044;-75
2023/05/17 03:58:28;;;;;;;8.18;2.55;;;;;;;6.49;85.30;101430.00;5000761;28;20076;-74
2023/05/17 04:01:32;;;;;;;8.95;3.20;;;;;;;6.47;85.83;101428.31;5016474;28;20056;-74
2023/05/17 04:04:35;;;;;;;10.02;3.90;;;;;;;6.48;86.22;101430.03;5004833;28;20512;-73
2023/05/17 04:08:04;;;;;;;10.90;3.35;;;;;;;6.51;86.05;101430.00;5004427;28;20044;-73
2023/05/17 04:11:31;;;;;;;8.00;3.60;;;;;;;6.59;85.73;101424.63;5015552;28;20137;-76
2023/05/17 04:14:35;;;;;;;;;;;;;;;6.57;86.06;101429.81;5004024;28;20091;-75
2023/05/17 04:17:38;;;;;;;9.13;3.70;;;;;;;6.75;85.39;101438.97;4995720;28;20011;-77
2023/05/17 04:20:41;;;;;;;9.48;2.90;;;;;;;6.84;84.57;101445.72;4996282;28;20581;-76
2023/05/17 04:23:44;;;;;;;;;;;;;;;6.96;84.70;101437.66;5004264;28;20100;-76
2023/05/17 04:26:48;;;;;;;8.48;3.70;;;;;;;7.00;84.32;101457.50;5016558;28;19968;-75
2023/05/17 04:29:52;;;;;;;5.80;3.03;;;;;;;6.90;84.31;101443.84;5004414;28;20521;-74
2023/05/17 04:32:55;;;;;;;6.95;2.63;;;;;;;6.86;83.97;101438.72;5004139;28;20096;-76
2023/05/17 04:35:58;;;;;;;;;;;;;;;6.92;85.04;101451.59;5004713;28;20048;-74
2023/05/17 04:39:04;;;;;;;11.40;4.80;;;;;;;7.02;84.09;101457.44;5004098;28;19920;-76
2023/05/17 04:42:07;;;;;;;;;;;;;;;6.98;84.16;101464.47;5004344;28;20044;-76
2023/05/17 04:45:15;;;;;;;7.30;2.78;;;;;;;6.84;84.46;101458.72;4999126;28;19960;-77
2023/05/17 04:48:19;;;;;;;7.28;2.70;;;;;;;6.75;84.87;101463.22;5003139;28;20457;-74
2023/05/17 04:51:22;;;;;;;6.82;2.72;;;;;;;6.79;84.88;101476.16;5003258;28;20524;-75
2023/05/17 04:54:25;;;;;;;;;;;;;;;6.79;85.58;101482.22;5004153;28;20045;-75
2023/05/17 04:57:29;;;;;;;5.72;2.92;;;;;;;6.77;85.83;101481.41;5003748;28;20355;-75
2023/05/17 05:00:37;;;;;;;8.70;2.90;;;;;;;6.69;85.95;101481.56;5003419;28;20099;-75
2023/05/17 05:03:41;;;;;;;7.60;4.20;;;;;;;6.85;85.53;101482.09;5003056;28;20406;-72
2023/05/17 05:06:46;;;;;;;4.88;3.20;;;;;;;6.98;84.08;101498.28;5002607;28;20056;-72
2023/05/17 05:09:50;;;;;;;7.57;4.05;;;;;;;6.99;83.86;101506.06;5003431;28;20181;-72
2023/05/17 05:12:57;;;;;;;7.13;3.35;;;;;;;6.95;84.18;101503.53;5003055;28;20475;-72
2023/05/17 05:15:59;;;;;;;4.97;2.92;;;;;;;6.89;84.64;101512.34;5002307;28;20173;-72
2023/05/17 05:19:03;;;;;;;6.18;3.17;;;;;;;7.04;83.88;101507.69;5003321;28;20053;-72
2023/05/17 05:31:09;;;;;;;6.75;2.92;;;;;;;6.66;87.91;101517.16;5011462;28;20105;-72
2023/05/17 05:34:19;;;;;;;8.35;2.72;;;;;;;6.92;87.56;101519.19;5004148;28;20061;-72
2023/05/17 05:37:23;;;;;;;;;;;;;;;7.23;86.60;101509.84;5015727;28;20048;-72
2023/05/17 05:40:26;;;;;;;7.03;2.88;;;;;;;7.07;86.28;101516.28;5002816;28;20317;-72
2023/05/17 05:43:30;;;;;;;7.25;3.25;;;;;;;7.30;86.07;101515.75;5001809;28;20096;-72
2023/05/17 05:46:33;;;;;;;9.20;3.42;;;;;;;7.57;85.37;101519.47;5002872;28;20459;-72
2023/05/17 05:49:38;;;;;;;6.10;2.47;;;;;;;7.74;85.27;101518.22;5003109;28;20045;-71
2023/05/17 05:52:42;;;;;;;6.32;2.70;;;;;;;7.89;85.48;101515.22;5003019;28;20052;-72
2023/05/17 05:55:45;;;;;;;4.65;2.30;;;;;;;7.99;84.70;101521.91;5014889;28;20052;-71
2023/05/17 05:58:48;;;;;;;;;;;;;;;8.16;83.10;101524.91;5008857;28;20464;-72
2023/05/17 06:01:51;;;;;;;6.55;2.97;;;;;;;8.14;83.61;101521.53;5002338;28;20324;-72
2023/05/17 06:04:55;;;;;;;4.68;2.50;;;;;;;8.24;83.82;101539.53;5014779;28;20172;-72
2023/05/17 06:07:58;;;;;;;7.43;2.53;;;;;;;8.29;83.88;101538.47;5014686;28;20119;-72
2023/05/17 06:11:01;;;;;;;;;;;;;;;8.38;84.04;101534.81;5015024;28;20048;-72
2023/05/17 06:14:04;;;;;;;7.40;2.72;;;;;;;8.37;83.49;101544.34;5014370;28;19924;-72
2023/05/17 06:17:07;;;;;;;;;;;;;;;8.52;83.98;101543.13;5014928;28;20076;-71
2023/05/17 06:20:10;;;;;;;7.03;2.47;;;;;;;8.66;82.82;101528.84;5014470;28;19920;-71
2023/05/17 06:23:14;;;;;;;4.85;2.20;;;;;;;8.74;82.52;101524.25;5013462;28;20041;-71
2023/05/17 06:26:17;;;;;;;4.75;2.30;;;;;;;8.90;82.29;101532.50;5014315;28;20048;-72
2023/05/17 06:29:20;;;;;;;6.00;2.33;;;;;;;8.82;81.99;101535.34;5002341;28;20516;-71
2023/05/17 06:32:24;;;;;;;9.23;3.33;;;;;;;8.95;82.28;101538.44;5002005;28;20088;-72
2023/05/17 06:35:28;;;;;;;;;;;;;;;9.16;81.61;101544.78;5002402;28;20532;-71
2023/05/17 06:38:30;;;;;;;13.60;5.13;;;;;;;9.35;79.11;101537.22;5014120;28;19920;-72
2023/05/17 06:41:35;;;;;;;12.88;4.60;;;;;;;9.53;78.24;101534.03;5002195;28;20053;-72
2023/05/17 06:44:38;;;;;;;12.15;4.18;;;;;;;9.62;76.92;101535.50;5014064;28;20045;-72
2023/05/17 06:47:42;;;;;;;;;;;;;;;9.64;74.93;101546.78;5014431;28;20052;-72
2023/05/17 06:50:45;;;;;;;16.40;3.95;;;;;;;9.51;73.98;101546.31;5014217;28;19924;-73
2023/05/17 06:53:49;;;;;;;11.70;4.28;;;;;;;9.47;74.24;101540.31;5013548;28;20045;-72
2023/05/17 06:56:52;;;;;;;10.90;3.95;;;;;;;9.63;75.02;101538.06;5013855;28;20044;-72
2023/05/17 06:59:55;;;;;;;;;;;;;;;9.64;71.39;101531.97;5014217;28;20579;-72
2023/05/17 07:02:59;;;;;;;13.25;4.63;;;;;;;9.73;72.66;101536.88;4994156;28;20406;-72
2023/05/17 07:06:02;;;;;;;;;;;;;;;9.99;72.89;101533.41;4994535;28;20133;-72
2023/05/17 07:09:05;;;;;;;12.85;4.03;;;;;;;10.22;71.73;101542.22;4993908;28;20039;-72
2023/05/17 07:12:08;;;;;;;9.35;3.30;;;;;;;10.38;71.25;101540.81;4993957;28;20081;-72
2023/05/17 07:15:12;;;;;;;13.15;4.63;;;;;;;10.30;70.22;101547.19;4993894;28;20049;-72
2023/05/17 07:18:16;;;;;;;;;;;;;;;10.31;70.68;101541.94;4994290;28;20053;-72
2023/05/17 07:21:19;;;;;;;14.93;5.22;;;;;;;10.23;71.48;101541.31;4994016;28;19920;-72
2023/05/17 07:24:22;;;;;;;;;;;;;;;10.40;71.41;101546.84;4994174;28;20061;-72
2023/05/17 07:27:25;;;;;;;12.98;5.35;;;;;;;10.32;69.93;101551.47;4993765;28;20396;-71
2023/05/17 07:30:28;;;;;;;;;;;;;;;10.39;70.36;101557.34;4994114;28;20462;-72
2023/05/17 07:33:31;;;;;;;15.20;5.00;;;;;;;10.50;69.80;101554.34;4993359;28;19928;-72
2023/05/17 07:36:34;;;;;;;;;;;;;;;10.53;70.24;101549.88;4994030;28;20045;-72
2023/05/17 07:39:37;;;;;;;14.37;5.17;;;;;;;10.58;69.30;101547.94;4993631;28;19968;-72
2023/05/17 07:42:41;;;;;;;8.93;5.28;;;;;;;10.41;69.78;101555.53;4993447;28;20106;-72
2023/05/17 07:45:44;;;;;;;17.00;4.47;;;;;;;10.40;70.64;101551.19;4993509;28;20529;-72
2023/05/17 07:48:47;;;;;;;;;;;;;;;10.59;73.49;101554.00;4994088;28;20194;-71
2023/05/17 07:51:51;;;;;;;11.77;4.72;;;;;;;10.92;73.88;101552.78;4993499;28;20381;-71
2023/05/17 07:54:54;;;;;;;15.02;5.53;;;;;;;11.15;72.47;101554.53;4993391;28;20093;-70
2023/05/17 07:57:57;;;;;;;;;;;;;;;11.30;69.82;101557.50;4994036;28;20525;-70
2023/05/17 08:01:00;;;;;;;12.23;4.93;;;;;;;11.48;69.55;101555.91;4997807;28;20396;-72
2023/05/17 08:04:04;;;;;;;10.85;5.13;;;;;;;11.30;67.06;101563.56;5013131;28;20041;-71
2023/05/17 08:07:07;;;;;;;;;;;;;;;11.34;68.03;101562.53;5013356;28;20048;-71
2023/05/17 08:10:11;;;;;;;11.90;5.80;;;;;;;11.50;68.20;101560.16;5012918;28;19936;-71
2023/05/17 08:13:14;;;;;;;12.63;5.05;;;;;;;11.44;68.75;101551.69;5012751;28;20092;-70
2023/05/17 08:16:18;;;;;;;10.45;5.28;;;;;;;11.26;69.13;101556.72;5012765;28;20096;-70
2023/05/17 08:19:21;;;;;;;14.45;6.00;;;;;;;11.38;68.91;101555.41;5012828;28;20065;-70
2023/05/17 08:22:25;;;;;;;;;;;;;;;11.47;68.08;101551.59;5013188;28;20045;-70
2023/05/17 08:25:28;;;;;;;12.75;4.65;;;;;;;11.72;68.15;101547.06;5012259;28;20337;-71
2023/05/17 08:28:31;;;;;;;11.25;4.85;;;;;;;11.85;65.67;101540.44;5012607;28;20525;-71
2023/05/17 08:31:35;;;;;;;;;;;;;;;12.04;65.37;101542.28;5012634;28;20104;-71
2023/05/17 08:34:38;;;;;;;10.57;4.40;;;;;;;12.12;64.56;101536.72;5011605;28;19936;-71
2023/05/17 08:37:41;;;;;;;9.23;4.32;;;;;;;12.29;63.04;101540.31;5012884;28;20104;-71
2023/05/17 08:40:53;;;;;;;12.13;4.90;;;;;;;12.49;62.07;101546.47;5005683;28;20044;-71
2023/05/17 08:43:57;;;;;;;8.57;4.30;;;;;;;12.01;61.23;101529.31;5012778;28;20410;-71
2023/05/17 08:47:02;;;;;;;8.45;4.28;;;;;;;12.26;62.56;101527.34;5015088;28;20481;-71
2023/05/17 08:50:06;;;;;;;12.48;4.25;;;;;;;12.40;61.19;101526.72;5015322;28;20061;-71
2023/05/17 08:53:09;;;;;;;9.55;4.40;;;;;;;12.47;62.72;101540.44;5014764;28;20134;-71
2023/05/17 08:56:15;;;;;;;11.15;4.20;;;;;;;12.32;62.79;101536.72;5016193;28;20044;-71
2023/05/17 08:59:19;;;;;;;10.35;5.00;;;;;;;12.39;62.59;101532.91;5015922;28;20456;-71
2023/05/17 09:02:23;;;;;;;14.05;4.63;;;;;;;12.28;62.54;101543.00;5015745;28;20096;-70
2023/05/17 09:05:27;;;;;;;13.18;3.88;;;;;;;12.36;62.33;101545.31;5015788;28;20040;-72
2023/05/17 09:08:31;;;;;;;12.80;4.25;;;;;;;12.31;60.71;101533.22;5015703;28;20470;-73
2023/05/17 09:11:35;;;;;;;11.68;4.90;;;;;;;12.14;61.10;101540.97;5015557;28;20041;-73
2023/05/17 09:14:38;;;;;;;13.25;4.65;;;;;;;12.28;60.27;101546.50;5007919;28;20049;-73
2023/05/17 09:17:42;;;;;;;11.20;4.50;;;;;;;12.18;61.08;101544.31;5015576;28;20085;-71
2023/05/17 09:20:50;;;;;;;11.77;3.65;;;;;;;12.02;58.96;101536.25;5002882;28;20052;-72
2023/05/17 09:23:54;;;;;;;9.07;3.97;;;;;;;11.93;60.37;101541.88;5002206;28;20045;-72
2023/05/17 09:27:02;;;;;;;13.95;4.35;;;;;;;11.70;59.53;101530.53;5012974;28;20117;-72
2023/05/17 09:30:09;;;;;;;10.23;3.47;;;;;;;11.97;60.90;101527.75;5014137;28;20139;-70
2023/05/17 09:33:12;;;;;;;12.30;4.13;;;;;;;12.23;59.41;101530.09;5003296;28;20049;-72
2023/05/17 09:36:18;;;;;;;7.50;3.00;;;;;;;12.36;54.43;101529.56;5015201;28;20065;-74
2023/05/17 09:39:24;;;;;;;8.45;3.50;;;;;;;12.49;55.00;101528.13;5013727;28;20410;-71
2023/05/17 09:42:35;;;;;;;7.57;2.95;;;;;;;12.59;54.64;101532.03;5015136;28;20044;-71
2023/05/17 09:45:41;;;;;;;7.22;2.83;;;;;;;12.63;55.11;101523.09;5003435;28;20157;-72
2023/05/17 09:48:52;;;;;;;10.85;2.97;;;;;;;12.59;53.24;101518.06;5015086;28;20077;-72
2023/05/17 09:51:55;;;;;;;7.03;2.63;;;;;;;12.40;49.19;101515.41;5009813;28;20107;-73
2023/05/17 09:55:00;;;;;;;7.50;2.75;;;;;;;12.63;51.26;101517.84;5002551;28;20123;-72
2023/05/17 09:58:03;;;;;;;11.63;2.90;;;;;;;12.84;49.44;101515.19;5014068;28;20085;-79
2023/05/17 10:01:09;;;;;;;8.02;3.00;;;;;;;13.08;50.68;101518.41;5014270;28;20064;-69
2023/05/17 10:04:13;;;;;;;8.32;2.53;;;;;;;13.13;51.02;101521.69;5011657;28;20604;-69
2023/05/17 10:07:18;;;;;;;8.55;2.90;;;;;;;13.13;52.63;101498.91;5014562;28;20088;-70
2023/05/17 10:10:22;;;;;;;8.85;2.17;;;;;;;13.56;50.21;101496.00;5014437;28;20049;-70
2023/05/17 10:13:33;;;;;;;10.90;3.13;;;;;;;13.70;50.53;101497.03;5014583;28;20089;-71
2023/05/17 10:16:37;;;;;;;10.73;2.90;;;;;;;13.68;50.08;101496.25;5014828;28;20061;-70
2023/05/17 10:19:41;;;;;;;11.10;2.75;;;;;;;13.63;50.25;101500.06;5006971;28;20048;-70
2023/05/17 10:22:46;;;;;;;7.82;2.33;;;;;;;13.66;50.20;101500.75;5014423;28;20092;-70
2023/05/17 10:25:50;;;;;;;10.80;3.00;;;;;;;13.62;50.06;101493.94;5014422;28;20084;-70
2023/05/17 10:29:01;;;;;;;16.02;2.78;;;;;;;13.77;51.65;101494.09;5014348;28;20103;-70
2023/05/17 10:32:09;;;;;;;8.15;2.25;;;;;;;13.60;50.92;101503.69;5010242;28;20052;-70
2023/05/17 10:35:14;;;;;;;7.38;2.53;;;;;;;13.77;49.91;101491.47;5010935;28;20067;-71
2023/05/17 10:38:17;;;;;;;8.85;2.17;;;;;;;13.91;46.79;101484.59;5014283;28;20056;-68
2023/05/17 10:41:23;;;;;;;9.23;2.63;;;;;;;14.08;47.89;101486.38;5014028;28;20048;-69
2023/05/17 10:44:29;;;;;;;8.18;2.53;;;;;;;14.10;46.43;101478.38;5014044;28;20409;-70
2023/05/17 10:47:32;;;;;;;8.43;2.65;;;;;;;14.26;46.75;101484.53;5014266;28;20072;-69
2023/05/17 10:50:41;;;;;;;7.97;2.17;;;;;;;13.86;44.78;101485.75;5013843;28;20559;-68
2023/05/17 10:54:10;;;;;;;10.20;2.40;;;;;;;14.10;47.00;101468.72;5013466;28;20049;-71
2023/05/17 10:57:41;;;;;;;7.70;2.83;;;;;;;14.46;46.38;101480.03;5001494;28;20494;-72
2023/05/17 11:00:47;;;;;;;9.30;2.53;;;;;;;14.50;44.96;101458.72;5013549;28;20057;-71
2023/05/17 11:03:54;;;;;;;13.05;2.60;;;;;;;14.34;44.41;101471.00;5014035;28;20465;-74
2023/05/17 11:07:15;;;;;;;11.88;3.28;;;;;;;14.25;44.14;101460.97;5013518;28;20059;-71
2023/05/17 11:10:19;;;;;;;7.85;1.88;;;;;;;14.24;43.77;101469.78;5010681;28;20564;-72
2023/05/17 11:13:25;;;;;;;9.73;2.17;;;;;;;13.81;42.55;101453.59;5013425;28;20045;-73
2023/05/17 11:16:34;;;;;;;10.25;2.22;;;;;;;14.14;44.83;101443.97;5013288;28;20076;-73
2023/05/17 11:19:38;;;;;;;13.15;2.35;;;;;;;14.32;43.90;101447.38;5013098;28;20052;-73
2023/05/17 11:22:57;;;;;;;7.57;2.08;;;;;;;14.19;42.42;101456.84;5013373;28;20049;-73
2023/05/17 11:26:17;;;;;;;7.25;2.25;;;;;;;13.67;41.98;101455.13;5013329;28;20104;-77
2023/05/17 11:29:28;;;;;;;7.43;2.00;;;;;;;13.81;42.52;101450.97;5014847;28;20573;-73
2023/05/17 11:32:31;;;;;;;13.18;2.17;;;;;;;14.12;43.82;101445.81;5013238;28;20137;-74
2023/05/17 11:35:36;;;;;;;11.75;2.45;;;;;;;14.34;41.89;101447.31;5013214;28;20044;-76
2023/05/17 11:38:39;;;;;;;9.43;1.92;;;;;;;14.28;41.46;101442.38;5013005;28;20040;-76
2023/05/17 11:41:50;;;;;;;9.00;2.15;;;;;;;14.21;41.04;101448.91;5012927;28;20113;-75
2023/05/17 11:44:57;;;;;;;5.53;1.38;;;;;;;14.33;40.96;101449.09;5007426;28;20596;-73
2023/05/17 11:48:00;;;;;;;6.78;1.85;;;;;;;14.62;40.98;101433.56;5013373;28;20096;-72
2023/05/17 11:51:04;;;;;;;11.98;2.35;;;;;;;14.72;40.69;101457.59;5013325;28;20104;-74
2023/05/17 11:54:08;;;;;;;7.03;1.55;;;;;;;14.33;41.54;101450.88;5008474;28;20048;-74
2023/05/17 11:57:16;;;;;;;8.38;2.15;;;;;;;14.55;42.09;101438.31;5007897;28;20584;-74
2023/05/17 12:00:27;;;;;;;11.20;2.10;;;;;;;14.86;40.55;101436.59;5012154;28;20065;-76
2023/05/17 12:03:32;;;;;;;11.55;3.08;;;;;;;15.03;41.04;101428.63;5012359;28;20406;-74
2023/05/17 12:06:36;;;;;;;7.20;2.03;;;;;;;15.04;39.62;101429.47;5000819;28;20045;-75
2023/05/17 12:09:44;;;;;;;9.10;2.00;;;;;;;15.19;40.10;101436.50;5012817;28;20128;-73
2023/05/17 12:12:47;;;;;;;11.38;3.63;;;;;;;14.99;39.86;101429.72;5012512;28;20040;-73
2023/05/17 12:15:53;;;;;;;11.45;2.20;;;;;;;14.81;39.49;101438.66;5012894;28;20049;-75
2023/05/17 12:18:58;;;;;;;6.65;1.80;;;;;;;15.06;41.03;101431.09;5012754;28;20115;-73
2023/05/17 12:22:07;;;;;;;7.10;1.95;;;;;;;15.39;40.75;101430.09;5015735;28;20073;-74
2023/05/17 12:25:24;;;;;;;11.48;2.50;;;;;;;15.17;37.72;101427.00;5016081;28;20092;-74
2023/05/17 12:28:27;;;;;;;10.45;2.83;;;;;;;15.54;38.68;101429.19;5016515;28;20107;-74
2023/05/17 12:31:37;;;;;;;8.52;2.83;;;;;;;15.99;37.63;101427.41;5016407;28;20104;-76
2023/05/17 12:34:40;;;;;;;10.13;2.22;;;;;;;16.20;38.28;101427.88;5016313;28;20405;-72
2023/05/17 12:37:44;;;;;;;12.27;3.35;;;;;;;16.10;36.67;101436.47;5016039;28;20053;-75
2023/05/17 12:40:48;;;;;;;8.77;1.83;;;;;;;16.13;36.33;101425.72;5016276;28;20077;-74
2023/05/17 12:43:51;;;;;;;9.85;2.42;;;;;;;16.65;37.93;101419.81;5016317;28;20048;-73
2023/05/17 12:46:56;;;;;;;9.93;3.13;;;;;;;16.94;37.07;101412.69;5010695;28;20104;-72
2023/05/17 12:50:02;;;;;;;11.70;3.22;;;;;;;17.27;39.57;101414.94;5016113;28;20080;-76
2023/05/17 12:53:10;;;;;;;9.55;1.95;;;;;;;16.77;37.73;101411.16;5004118;28;20072;-75
2023/05/17 12:56:17;;;;;;;12.20;2.10;;;;;;;17.00;38.97;101404.38;5004008;28;20099;-76
2023/05/17 12:59:20;;;;;;;6.53;1.90;;;;;;;17.01;37.95;101405.25;5015756;28;20048;-79
2023/05/17 13:02:23;;;;;;;9.40;2.20;;;;;;;16.96;36.99;101400.25;5015777;28;20088;-76
2023/05/17 13:05:27;;;;;;;13.70;3.47;;;;;;;17.42;36.38;101405.13;5015767;28;20466;-73
2023/05/17 13:08:30;;;;;;;10.93;2.55;;;;;;;17.69;34.56;101414.81;5015630;28;20044;-73
2023/05/17 13:11:39;;;;;;;8.70;2.03;;;;;;;17.70;35.06;101406.75;5015642;28;20188;-74
2023/05/17 13:14:45;;;;;;;9.60;1.80;;;;;;;17.92;35.91;101405.31;5014863;28;20053;-74
2023/05/17 13:17:48;;;;;;;7.50;2.67;;;;;;;17.97;33.96;101392.63;5015653;28;20125;-75
2023/05/17 13:20:51;;;;;;;12.65;2.65;;;;;;;18.24;33.33;101414.50;5015582;28;20104;-74
2023/05/17 13:23:55;;;;;;;10.05;2.40;;;;;;;17.94;33.52;101406.91;5015496;28;20040;-75
2023/05/17 13:26:58;;;;;;;8.63;2.35;;;;;;;17.92;34.78;101405.31;5015417;28;20052;-74
2023/05/17 13:30:02;;;;;;;6.32;1.95;;;;;;;18.68;35.35;101402.53;5015369;28;20048;-74
2023/05/17 13:33:06;;;;;;;7.60;1.98;;;;;;;18.95;33.10;101396.22;5014802;28;20049;-74
2023/05/17 13:36:10;;;;;;;9.43;2.08;;;;;;;18.73;32.87;101389.84;5015281;28;20048;-76
2023/05/17 13:39:15;;;;;;;11.00;2.90;;;;;;;19.41;33.04;101390.13;5015253;28;20099;-74
2023/05/17 13:42:18;;;;;;;8.35;2.40;;;;;;;19.12;31.50;101377.25;5015155;28;20105;-74
2023/05/17 13:45:22;;;;;;;9.82;1.90;;;;;;;18.78;31.14;101373.59;5015285;28;20110;-75
2023/05/17 13:48:25;;;;;;;8.55;2.22;;;;;;;19.22;31.45;101378.25;5014967;28;20137;-76
2023/05/17 13:51:28;;;;;;;5.40;1.60;;;;;;;20.18;31.75;101369.97;5015025;28;20574;-74
2023/05/17 13:54:31;;;;;;;5.20;2.10;;;;;;;20.39;30.50;101377.22;5014915;28;20178;-74
2023/05/17 13:57:35;;;;;;;7.20;1.90;;;;;;;20.53;29.76;101366.34;5015100;28;20501;-73
2023/05/17 14:00:41;;;;;;;8.25;2.22;;;;;;;20.62;29.22;101359.44;5014394;28;20041;-74
2023/05/17 14:03:45;;;;;;;7.43;2.20;;;;;;;20.36;30.79;101361.53;5014465;28;20129;-74
2023/05/17 14:06:48;;;;;;;11.82;1.85;;;;;;;20.87;28.62;101358.28;5014637;28;20101;-73
2023/05/17 14:09:52;;;;;;;8.55;2.35;;;;;;;21.74;28.19;101360.72;5014464;28;20041;-75
2023/05/17 14:12:55;;;;;;;6.68;1.77;;;;;;;24.62;23.61;101352.84;5014430;28;20100;-75
2023/05/17 14:15:58;;;;;;;8.52;2.33;;;;;;;26.48;21.51;101348.06;5014504;28;20049;-76
2023/05/17 14:19:02;;;;;;;7.18;2.17;;;;;;;24.93;21.79;101349.81;5014420;28;20041;-74
2023/05/17 14:22:06;;;;;;;6.85;2.08;;;;;;;23.28;24.37;101367.41;5014594;28;20073;-74
2023/05/17 14:25:10;;;;;;;6.72;1.98;;;;;;;24.81;24.86;101358.06;5014269;28;20044;-75
2023/05/17 14:28:15;;;;;;;6.82;2.00;;;;;;;26.87;22.05;101339.41;5014116;28;20041;-74
2023/05/17 14:31:18;;;;;;;10.48;2.47;;;;;;;28.84;19.76;101332.38;5013500;28;20048;-73
2023/05/17 14:34:22;;;;;;;10.23;2.20;;;;;;;29.30;18.44;101339.59;5012704;28;20045;-73
2023/05/17 14:37:26;;;;;;;6.75;1.95;;;;;;;26.91;21.56;101332.72;5012963;28;20104;-76
2023/05/17 14:40:30;;;;;;;6.60;2.42;;;;;;;28.11;19.51;101346.25;5013611;28;20077;-76
2023/05/17 14:43:33;;;;;;;6.00;1.67;;;;;;;28.39;19.47;101344.75;5012971;28;20088;-74